sensor_id;sensor_type;location;lat;lon;timestamp;temperature;humidity
12578;DHT22;6354;51.026;8.968;2023-03-22T00:01:24;9.50;99.90
12578;DHT22;6354;51.026;8.968;2023-03-22T00:03:54;9.40;99.90
12578;DHT22;6354;51.026;8.968;2023-03-22T00:06:23;9.40;99.90
12578;DHT22;6354;51.026;8.968;2023-03-22T00:08:52;9.40;99.90
12578;DHT22;6354;51.026;8.968;2023-03-22T00:11:22;9.40;99.90
12578;DHT22;6354;51.026;8.968;2023-03-22T00:13:51;9.50;99.90
12578;DHT22;6354;51.026;8.968;2023-03-22T00:16:20;9.40;99.90
12578;DHT22;6354;51.026;8.968;2023-03-22T00:18:49;9.40;99.90
12578;DHT22;6354;51.026;8.968;2023-03-22T00:21:17;9.40;99.90
12578;DHT22;6354;51.026;8.968;2023-03-22T00:23:45;9.40;99.90
12578;DHT22;6354;51.026;8.968;2023-03-22T00:26:14;9.40;99.90
12578;DHT22;6354;51.026;8.968;2023-03-22T00:28:43;9.40;99.90
12578;DHT22;6354;51.026;8.968;2023-03-22T00:31:11;9.40;99.90
12578;DHT22;6354;51.026;8.968;2023-03-22T00:33:39;9.30;99.90
12578;DHT22;6354;51.026;8.968;2023-03-22T00:36:10;9.30;99.90
12578;DHT22;6354;51.026;8.968;2023-03-22T00:38:38;9.30;99.90
12578;DHT22;6354;51.026;8.968;2023-03-22T00:41:11;9.30;99.90
12578;DHT22;6354;51.026;8.968;2023-03-22T00:43:40;9.30;99.90
12578;DHT22;6354;51.026;8.968;2023-03-22T00:46:10;9.20;99.90
12578;DHT22;6354;51.026;8.968;2023-03-22T00:48:39;9.20;99.90
12578;DHT22;6354;51.026;8.968;2023-03-22T00:51:08;9.20;99.90
12578;DHT22;6354;51.026;8.968;2023-03-22T00:53:37;9.20;99.90
12578;DHT22;6354;51.026;8.968;2023-03-22T00:56:09;9.20;99.90
12578;DHT22;6354;51.026;8.968;2023-03-22T00:58:39;9.30;99.90
12578;DHT22;6354;51.026;8.968;2023-03-22T01:01:09;9.30;99.90
12578;DHT22;6354;51.026;8.968;2023-03-22T01:03:40;9.30;99.90
12578;DHT22;6354;51.026;8.968;2023-03-22T01:06:09;9.30;99.90
12578;DHT22;6354;51.026;8.968;2023-03-22T01:08:37;9.30;99.90
12578;DHT22;6354;51.026;8.968;2023-03-22T01:11:07;9.40;99.90
12578;DHT22;6354;51.026;8.968;2023-03-22T01:13:36;9.40;99.90
12578;DHT22;6354;51.026;8.968;2023-03-22T01:16:06;9.30;99.90
12578;DHT22;6354;51.026;8.968;2023-03-22T01:18:36;9.30;99.90
12578;DHT22;6354;51.026;8.968;2023-03-22T01:21:05;9.30;99.90
12578;DHT22;6354;51.026;8.968;2023-03-22T01:23:33;9.30;99.90
12578;DHT22;6354;51.026;8.968;2023-03-22T01:26:01;9.30;99.90
12578;DHT22;6354;51.026;8.968;2023-03-22T01:28:29;9.30;99.90
12578;DHT22;6354;51.026;8.968;2023-03-22T01:31:00;9.20;99.90
12578;DHT22;6354;51.026;8.968;2023-03-22T01:33:30;9.30;99.90
12578;DHT22;6354;51.026;8.968;2023-03-22T01:35:59;9.30;99.90
12578;DHT22;6354;51.026;8.968;2023-03-22T01:38:27;9.20;99.90
12578;DHT22;6354;51.026;8.968;2023-03-22T01:40:55;9.20;99.90
12578;DHT22;6354;51.026;8.968;2023-03-22T01:43:24;9.20;99.90
12578;DHT22;6354;51.026;8.968;2023-03-22T01:45:53;9.10;99.90
12578;DHT22;6354;51.026;8.968;2023-03-22T01:48:25;9.10;99.90
12578;DHT22;6354;51.026;8.968;2023-03-22T01:51:01;9.10;99.90
12578;DHT22;6354;51.026;8.968;2023-03-22T01:53:34;9.10;99.90
12578;DHT22;6354;51.026;8.968;2023-03-22T01:56:02;9.10;99.90
12578;DHT22;6354;51.026;8.968;2023-03-22T01:58:33;9.20;99.90
12578;DHT22;6354;51.026;8.968;2023-03-22T02:01:04;9.20;99.90
12578;DHT22;6354;51.026;8.968;2023-03-22T02:03:37;9.20;99.90
12578;DHT22;6354;51.026;8.968;2023-03-22T02:06:09;9.10;99.90
12578;DHT22;6354;51.026;8.968;2023-03-22T02:08:37;9.10;99.90
12578;DHT22;6354;51.026;8.968;2023-03-22T02:11:06;9.20;99.90
12578;DHT22;6354;51.026;8.968;2023-03-22T02:14:07;9.10;99.90
12578;DHT22;6354;51.026;8.968;2023-03-22T02:16:47;9.20;99.90
12578;DHT22;6354;51.026;8.968;2023-03-22T02:22:53;9.10;99.90
12578;DHT22;6354;51.026;8.968;2023-03-22T02:25:57;9.00;99.90
12578;DHT22;6354;51.026;8.968;2023-03-22T02:28:40;9.00;99.90
12578;DHT22;6354;51.026;8.968;2023-03-22T02:31:23;8.90;99.90
12578;DHT22;6354;51.026;8.968;2023-03-22T02:34:04;8.90;99.90
12578;DHT22;6354;51.026;8.968;2023-03-22T02:37:05;9.00;99.90
12578;DHT22;6354;51.026;8.968;2023-03-22T02:39:42;9.00;99.90
12578;DHT22;6354;51.026;8.968;2023-03-22T02:42:25;8.90;99.90
12578;DHT22;6354;51.026;8.968;2023-03-22T02:44:58;8.80;99.90
12578;DHT22;6354;51.026;8.968;2023-03-22T02:47:36;8.90;99.90
12578;DHT22;6354;51.026;8.968;2023-03-22T02:50:10;8.80;99.90
12578;DHT22;6354;51.026;8.968;2023-03-22T02:52:43;8.70;99.90
12578;DHT22;6354;51.026;8.968;2023-03-22T02:55:19;8.70;99.90
12578;DHT22;6354;51.026;8.968;2023-03-22T02:57:51;8.70;99.90
12578;DHT22;6354;51.026;8.968;2023-03-22T03:00:23;8.80;99.90
12578;DHT22;6354;51.026;8.968;2023-03-22T03:02:54;8.90;99.90
12578;DHT22;6354;51.026;8.968;2023-03-22T03:05:28;8.80;99.90
12578;DHT22;6354;51.026;8.968;2023-03-22T03:07:59;8.80;99.90
12578;DHT22;6354;51.026;8.968;2023-03-22T03:10:30;8.80;99.90
12578;DHT22;6354;51.026;8.968;2023-03-22T03:12:59;8.80;99.90
12578;DHT22;6354;51.026;8.968;2023-03-22T03:15:27;8.80;99.90
12578;DHT22;6354;51.026;8.968;2023-03-22T03:18:14;8.70;99.90
12578;DHT22;6354;51.026;8.968;2023-03-22T03:20:55;8.60;99.90
12578;DHT22;6354;51.026;8.968;2023-03-22T03:23:35;8.60;99.90
12578;DHT22;6354;51.026;8.968;2023-03-22T03:26:11;8.60;99.90
12578;DHT22;6354;51.026;8.968;2023-03-22T03:28:47;8.60;99.90
12578;DHT22;6354;51.026;8.968;2023-03-22T03:31:27;8.60;99.90
12578;DHT22;6354;51.026;8.968;2023-03-22T03:34:01;8.60;99.90
12578;DHT22;6354;51.026;8.968;2023-03-22T03:36:33;8.50;99.90
12578;DHT22;6354;51.026;8.968;2023-03-22T03:39:06;8.50;99.90
12578;DHT22;6354;51.026;8.968;2023-03-22T03:41:38;8.60;99.90
12578;DHT22;6354;51.026;8.968;2023-03-22T03:44:07;8.60;99.90
12578;DHT22;6354;51.026;8.968;2023-03-22T03:46:35;8.60;99.90
12578;DHT22;6354;51.026;8.968;2023-03-22T03:49:04;8.70;99.90
12578;DHT22;6354;51.026;8.968;2023-03-22T03:51:45;8.70;99.90
12578;DHT22;6354;51.026;8.968;2023-03-22T03:54:13;8.80;99.90
12578;DHT22;6354;51.026;8.968;2023-03-22T03:56:43;8.80;99.90
12578;DHT22;6354;51.026;8.968;2023-03-22T03:59:13;8.80;99.90
12578;DHT22;6354;51.026;8.968;2023-03-22T04:01:43;8.70;99.90
12578;DHT22;6354;51.026;8.968;2023-03-22T04:04:17;8.70;99.90
12578;DHT22;6354;51.026;8.968;2023-03-22T04:06:45;8.60;99.90
12578;DHT22;6354;51.026;8.968;2023-03-22T04:09:13;8.60;99.90
12578;DHT22;6354;51.026;8.968;2023-03-22T04:11:42;8.60;99.90
12578;DHT22;6354;51.026;8.968;2023-03-22T04:14:10;8.60;99.90
12578;DHT22;6354;51.026;8.968;2023-03-22T04:16:38;8.60;99.90
12578;DHT22;6354;51.026;8.968;2023-03-22T04:19:06;8.60;99.90
12578;DHT22;6354;51.026;8.968;2023-03-22T04:21:35;8.50;99.90
12578;DHT22;6354;51.026;8.968;2023-03-22T04:24:03;8.50;99.90
12578;DHT22;6354;51.026;8.968;2023-03-22T04:26:31;8.50;99.90
12578;DHT22;6354;51.026;8.968;2023-03-22T04:29:01;8.60;99.90
12578;DHT22;6354;51.026;8.968;2023-03-22T04:31:30;8.70;99.90
12578;DHT22;6354;51.026;8.968;2023-03-22T04:33:58;8.60;99.90
12578;DHT22;6354;51.026;8.968;2023-03-22T04:36:32;8.50;99.90
12578;DHT22;6354;51.026;8.968;2023-03-22T04:39:03;8.50;99.90
12578;DHT22;6354;51.026;8.968;2023-03-22T04:41:31;8.50;99.90
12578;DHT22;6354;51.026;8.968;2023-03-22T04:44:01;8.50;99.90
12578;DHT22;6354;51.026;8.968;2023-03-22T04:46:30;8.50;99.90
12578;DHT22;6354;51.026;8.968;2023-03-22T04:48:58;8.60;99.90
12578;DHT22;6354;51.026;8.968;2023-03-22T04:51:27;8.60;99.90
12578;DHT22;6354;51.026;8.968;2023-03-22T04:53:56;8.60;99.90
12578;DHT22;6354;51.026;8.968;2023-03-22T04:56:24;8.50;99.90
12578;DHT22;6354;51.026;8.968;2023-03-22T04:58:52;8.50;99.90
12578;DHT22;6354;51.026;8.968;2023-03-22T05:01:22;8.60;99.90
12578;DHT22;6354;51.026;8.968;2023-03-22T05:03:50;8.60;99.90
12578;DHT22;6354;51.026;8.968;2023-03-22T05:06:18;8.60;99.90
12578;DHT22;6354;51.026;8.968;2023-03-22T05:08:46;8.60;99.90
12578;DHT22;6354;51.026;8.968;2023-03-22T05:11:15;8.50;99.90
12578;DHT22;6354;51.026;8.968;2023-03-22T05:13:45;8.60;99.90
12578;DHT22;6354;51.026;8.968;2023-03-22T05:16:13;8.60;99.90
12578;DHT22;6354;51.026;8.968;2023-03-22T05:18:42;8.60;99.90
12578;DHT22;6354;51.026;8.968;2023-03-22T05:21:12;8.60;99.90
12578;DHT22;6354;51.026;8.968;2023-03-22T05:23:41;8.50;99.90
12578;DHT22;6354;51.026;8.968;2023-03-22T05:26:10;8.50;99.90
12578;DHT22;6354;51.026;8.968;2023-03-22T05:28:42;8.50;99.90
12578;DHT22;6354;51.026;8.968;2023-03-22T05:31:10;8.50;99.90
12578;DHT22;6354;51.026;8.968;2023-03-22T05:33:41;8.50;99.90
12578;DHT22;6354;51.026;8.968;2023-03-22T05:36:12;8.50;99.90
12578;DHT22;6354;51.026;8.968;2023-03-22T05:38:40;8.40;99.90
12578;DHT22;6354;51.026;8.968;2023-03-22T05:41:08;8.40;99.90
12578;DHT22;6354;51.026;8.968;2023-03-22T05:43:36;8.40;99.90
12578;DHT22;6354;51.026;8.968;2023-03-22T05:46:05;8.50;99.90
12578;DHT22;6354;51.026;8.968;2023-03-22T05:48:33;8.50;99.90
12578;DHT22;6354;51.026;8.968;2023-03-22T05:51:04;8.60;99.90
12578;DHT22;6354;51.026;8.968;2023-03-22T05:53:33;8.60;99.90
12578;DHT22;6354;51.026;8.968;2023-03-22T05:56:01;8.70;99.90
12578;DHT22;6354;51.026;8.968;2023-03-22T05:58:30;8.70;99.90
12578;DHT22;6354;51.026;8.968;2023-03-22T06:01:04;8.80;99.90
12578;DHT22;6354;51.026;8.968;2023-03-22T06:03:32;8.70;99.90
12578;DHT22;6354;51.026;8.968;2023-03-22T06:06:02;8.80;99.90
12578;DHT22;6354;51.026;8.968;2023-03-22T06:08:32;8.70;99.90
12578;DHT22;6354;51.026;8.968;2023-03-22T06:11:00;8.80;99.90
12578;DHT22;6354;51.026;8.968;2023-03-22T06:13:29;8.80;99.90
12578;DHT22;6354;51.026;8.968;2023-03-22T06:15:58;8.80;99.90
12578;DHT22;6354;51.026;8.968;2023-03-22T06:18:26;8.80;99.90
12578;DHT22;6354;51.026;8.968;2023-03-22T06:20:54;8.90;99.90
12578;DHT22;6354;51.026;8.968;2023-03-22T06:23:24;8.90;99.90
12578;DHT22;6354;51.026;8.968;2023-03-22T06:25:53;8.80;99.90
12578;DHT22;6354;51.026;8.968;2023-03-22T06:28:21;8.90;99.90
12578;DHT22;6354;51.026;8.968;2023-03-22T06:30:49;8.90;99.90
12578;DHT22;6354;51.026;8.968;2023-03-22T06:33:17;8.90;99.90
12578;DHT22;6354;51.026;8.968;2023-03-22T06:35:45;9.00;99.90
12578;DHT22;6354;51.026;8.968;2023-03-22T06:38:13;9.00;99.90
12578;DHT22;6354;51.026;8.968;2023-03-22T06:40:42;9.10;99.90
12578;DHT22;6354;51.026;8.968;2023-03-22T06:43:10;9.10;99.90
12578;DHT22;6354;51.026;8.968;2023-03-22T06:45:38;9.10;99.90
12578;DHT22;6354;51.026;8.968;2023-03-22T06:48:07;9.10;99.90
12578;DHT22;6354;51.026;8.968;2023-03-22T06:50:35;9.10;99.90
12578;DHT22;6354;51.026;8.968;2023-03-22T06:53:06;9.20;99.90
12578;DHT22;6354;51.026;8.968;2023-03-22T06:55:35;9.10;99.90
12578;DHT22;6354;51.026;8.968;2023-03-22T06:58:04;9.10;99.90
12578;DHT22;6354;51.026;8.968;2023-03-22T07:00:32;9.10;99.90
12578;DHT22;6354;51.026;8.968;2023-03-22T07:03:01;9.10;99.90
12578;DHT22;6354;51.026;8.968;2023-03-22T07:05:29;9.10;99.90
12578;DHT22;6354;51.026;8.968;2023-03-22T07:07:57;9.10;99.90
12578;DHT22;6354;51.026;8.968;2023-03-22T07:10:25;9.20;99.90
12578;DHT22;6354;51.026;8.968;2023-03-22T07:12:54;9.10;99.90
12578;DHT22;6354;51.026;8.968;2023-03-22T07:15:23;9.10;99.90
12578;DHT22;6354;51.026;8.968;2023-03-22T07:17:51;9.10;99.90
12578;DHT22;6354;51.026;8.968;2023-03-22T07:20:19;9.20;99.90
12578;DHT22;6354;51.026;8.968;2023-03-22T07:22:49;9.20;99.90
12578;DHT22;6354;51.026;8.968;2023-03-22T07:25:17;9.30;99.90
12578;DHT22;6354;51.026;8.968;2023-03-22T07:27:46;9.30;99.90
12578;DHT22;6354;51.026;8.968;2023-03-22T07:30:14;9.40;99.90
12578;DHT22;6354;51.026;8.968;2023-03-22T07:32:43;9.50;99.90
12578;DHT22;6354;51.026;8.968;2023-03-22T07:35:11;9.50;99.90
12578;DHT22;6354;51.026;8.968;2023-03-22T07:37:39;9.60;99.90
12578;DHT22;6354;51.026;8.968;2023-03-22T07:40:08;9.70;99.90
12578;DHT22;6354;51.026;8.968;2023-03-22T07:42:36;9.70;99.90
12578;DHT22;6354;51.026;8.968;2023-03-22T07:45:05;9.60;99.90
12578;DHT22;6354;51.026;8.968;2023-03-22T07:47:34;9.60;99.90
12578;DHT22;6354;51.026;8.968;2023-03-22T07:50:12;9.70;99.90
12578;DHT22;6354;51.026;8.968;2023-03-22T07:52:40;9.70;99.90
12578;DHT22;6354;51.026;8.968;2023-03-22T07:55:11;9.80;99.90
12578;DHT22;6354;51.026;8.968;2023-03-22T07:57:39;9.90;99.90
12578;DHT22;6354;51.026;8.968;2023-03-22T08:00:08;10.00;99.90
12578;DHT22;6354;51.026;8.968;2023-03-22T08:02:36;10.10;99.90
12578;DHT22;6354;51.026;8.968;2023-03-22T08:05:06;10.10;99.90
12578;DHT22;6354;51.026;8.968;2023-03-22T08:07:35;10.10;99.90
12578;DHT22;6354;51.026;8.968;2023-03-22T08:10:04;10.10;99.90
12578;DHT22;6354;51.026;8.968;2023-03-22T08:12:32;10.20;99.90
12578;DHT22;6354;51.026;8.968;2023-03-22T08:15:00;10.20;99.90
12578;DHT22;6354;51.026;8.968;2023-03-22T08:17:28;10.20;99.90
12578;DHT22;6354;51.026;8.968;2023-03-22T08:19:56;10.30;99.90
12578;DHT22;6354;51.026;8.968;2023-03-22T08:22:25;10.30;99.90
12578;DHT22;6354;51.026;8.968;2023-03-22T08:24:56;10.20;99.90
12578;DHT22;6354;51.026;8.968;2023-03-22T08:27:24;10.10;99.90
12578;DHT22;6354;51.026;8.968;2023-03-22T08:29:53;10.20;99.90
12578;DHT22;6354;51.026;8.968;2023-03-22T08:32:21;10.30;99.90
12578;DHT22;6354;51.026;8.968;2023-03-22T08:34:49;10.30;99.90
12578;DHT22;6354;51.026;8.968;2023-03-22T08:37:18;10.30;99.90
12578;DHT22;6354;51.026;8.968;2023-03-22T08:39:47;10.40;99.90
12578;DHT22;6354;51.026;8.968;2023-03-22T08:42:16;10.30;99.90
12578;DHT22;6354;51.026;8.968;2023-03-22T08:44:44;10.50;99.90
12578;DHT22;6354;51.026;8.968;2023-03-22T08:47:13;10.40;99.90
12578;DHT22;6354;51.026;8.968;2023-03-22T08:49:41;10.40;99.90
12578;DHT22;6354;51.026;8.968;2023-03-22T08:52:09;10.60;99.90
12578;DHT22;6354;51.026;8.968;2023-03-22T08:54:37;10.60;99.90
12578;DHT22;6354;51.026;8.968;2023-03-22T08:57:05;10.70;99.90
12578;DHT22;6354;51.026;8.968;2023-03-22T08:59:36;10.70;99.90
12578;DHT22;6354;51.026;8.968;2023-03-22T09:02:04;10.70;99.90
12578;DHT22;6354;51.026;8.968;2023-03-22T09:04:33;10.80;99.90
12578;DHT22;6354;51.026;8.968;2023-03-22T09:07:01;10.70;99.90
12578;DHT22;6354;51.026;8.968;2023-03-22T09:09:29;10.60;99.90
12578;DHT22;6354;51.026;8.968;2023-03-22T09:11:57;10.60;99.90
12578;DHT22;6354;51.026;8.968;2023-03-22T09:14:26;10.80;99.90
12578;DHT22;6354;51.026;8.968;2023-03-22T09:16:55;11.10;99.90
12578;DHT22;6354;51.026;8.968;2023-03-22T09:19:23;11.40;99.90
12578;DHT22;6354;51.026;8.968;2023-03-22T09:21:51;11.70;99.90
12578;DHT22;6354;51.026;8.968;2023-03-22T09:24:19;11.70;99.90
12578;DHT22;6354;51.026;8.968;2023-03-22T09:26:48;11.60;99.90
12578;DHT22;6354;51.026;8.968;2023-03-22T09:29:17;11.50;99.90
12578;DHT22;6354;51.026;8.968;2023-03-22T09:31:46;11.30;99.90
12578;DHT22;6354;51.026;8.968;2023-03-22T09:34:16;11.30;99.90
12578;DHT22;6354;51.026;8.968;2023-03-22T09:36:44;11.20;99.90
12578;DHT22;6354;51.026;8.968;2023-03-22T09:39:13;11.20;99.90
12578;DHT22;6354;51.026;8.968;2023-03-22T09:41:45;11.40;99.90
12578;DHT22;6354;51.026;8.968;2023-03-22T09:44:19;11.60;99.90
12578;DHT22;6354;51.026;8.968;2023-03-22T09:46:52;11.60;99.90
12578;DHT22;6354;51.026;8.968;2023-03-22T09:49:26;11.70;99.90
12578;DHT22;6354;51.026;8.968;2023-03-22T09:51:56;11.80;99.90
12578;DHT22;6354;51.026;8.968;2023-03-22T09:54:30;11.90;99.90
12578;DHT22;6354;51.026;8.968;2023-03-22T09:57:01;11.80;99.90
12578;DHT22;6354;51.026;8.968;2023-03-22T09:59:36;11.70;99.90
12578;DHT22;6354;51.026;8.968;2023-03-22T10:02:21;11.60;99.90
12578;DHT22;6354;51.026;8.968;2023-03-22T10:05:00;11.60;99.90
12578;DHT22;6354;51.026;8.968;2023-03-22T10:07:35;11.60;99.90
12578;DHT22;6354;51.026;8.968;2023-03-22T10:10:13;11.70;99.90
12578;DHT22;6354;51.026;8.968;2023-03-22T10:12:49;11.80;99.90
12578;DHT22;6354;51.026;8.968;2023-03-22T10:15:25;11.90;99.90
12578;DHT22;6354;51.026;8.968;2023-03-22T10:17:56;12.10;99.90
12578;DHT22;6354;51.026;8.968;2023-03-22T10:20:32;12.00;99.90
12578;DHT22;6354;51.026;8.968;2023-03-22T10:23:05;12.20;99.90
12578;DHT22;6354;51.026;8.968;2023-03-22T10:25:36;12.30;99.90
12578;DHT22;6354;51.026;8.968;2023-03-22T10:28:14;12.50;99.90
12578;DHT22;6354;51.026;8.968;2023-03-22T10:30:43;12.60;99.90
12578;DHT22;6354;51.026;8.968;2023-03-22T10:33:24;12.80;99.90
12578;DHT22;6354;51.026;8.968;2023-03-22T10:35:55;12.80;99.90
12578;DHT22;6354;51.026;8.968;2023-03-22T10:38:26;12.80;99.90
12578;DHT22;6354;51.026;8.968;2023-03-22T10:40:57;12.80;99.90
12578;DHT22;6354;51.026;8.968;2023-03-22T10:43:30;12.90;99.90
12578;DHT22;6354;51.026;8.968;2023-03-22T10:46:00;13.00;99.90
12578;DHT22;6354;51.026;8.968;2023-03-22T10:48:31;12.90;99.90
12578;DHT22;6354;51.026;8.968;2023-03-22T10:51:02;13.00;99.90
12578;DHT22;6354;51.026;8.968;2023-03-22T10:53:36;13.20;99.90
12578;DHT22;6354;51.026;8.968;2023-03-22T10:56:10;13.30;99.90
12578;DHT22;6354;51.026;8.968;2023-03-22T10:58:39;13.40;99.90
12578;DHT22;6354;51.026;8.968;2023-03-22T11:01:08;13.30;99.90
12578;DHT22;6354;51.026;8.968;2023-03-22T11:03:39;13.50;99.90
12578;DHT22;6354;51.026;8.968;2023-03-22T11:06:12;13.70;99.90
12578;DHT22;6354;51.026;8.968;2023-03-22T11:08:43;14.00;99.90
12578;DHT22;6354;51.026;8.968;2023-03-22T11:11:16;14.00;99.90
12578;DHT22;6354;51.026;8.968;2023-03-22T11:13:52;14.10;99.90
12578;DHT22;6354;51.026;8.968;2023-03-22T11:16:21;14.10;99.90
12578;DHT22;6354;51.026;8.968;2023-03-22T11:18:50;14.00;99.90
12578;DHT22;6354;51.026;8.968;2023-03-22T11:21:24;14.10;99.90
12578;DHT22;6354;51.026;8.968;2023-03-22T11:23:56;14.20;99.90
12578;DHT22;6354;51.026;8.968;2023-03-22T11:26:29;14.40;99.90
12578;DHT22;6354;51.026;8.968;2023-03-22T11:29:11;14.60;99.90
12578;DHT22;6354;51.026;8.968;2023-03-22T11:31:52;14.80;99.90
12578;DHT22;6354;51.026;8.968;2023-03-22T11:34:24;14.90;99.90
12578;DHT22;6354;51.026;8.968;2023-03-22T11:36:55;14.80;99.90
12578;DHT22;6354;51.026;8.968;2023-03-22T11:39:28;14.70;99.90
12578;DHT22;6354;51.026;8.968;2023-03-22T11:41:57;14.70;99.90
12578;DHT22;6354;51.026;8.968;2023-03-22T11:44:31;14.70;99.90
12578;DHT22;6354;51.026;8.968;2023-03-22T11:47:02;14.70;99.90
12578;DHT22;6354;51.026;8.968;2023-03-22T11:49:39;14.50;99.90
12578;DHT22;6354;51.026;8.968;2023-03-22T11:52:15;14.30;99.90
12578;DHT22;6354;51.026;8.968;2023-03-22T11:54:45;14.30;99.90
12578;DHT22;6354;51.026;8.968;2023-03-22T11:57:16;14.40;99.90
12578;DHT22;6354;51.026;8.968;2023-03-22T11:59:49;14.40;99.90
12578;DHT22;6354;51.026;8.968;2023-03-22T12:02:23;14.50;99.90
12578;DHT22;6354;51.026;8.968;2023-03-22T12:04:57;14.40;99.90
12578;DHT22;6354;51.026;8.968;2023-03-22T12:07:30;14.40;99.90
12578;DHT22;6354;51.026;8.968;2023-03-22T12:10:02;14.50;99.90
12578;DHT22;6354;51.026;8.968;2023-03-22T12:12:37;14.70;99.90
12578;DHT22;6354;51.026;8.968;2023-03-22T12:15:13;14.90;99.90
12578;DHT22;6354;51.026;8.968;2023-03-22T12:17:44;15.00;99.90
12578;DHT22;6354;51.026;8.968;2023-03-22T12:20:20;15.10;99.90
12578;DHT22;6354;51.026;8.968;2023-03-22T12:22:55;15.00;99.90
12578;DHT22;6354;51.026;8.968;2023-03-22T12:25:26;14.90;99.90
12578;DHT22;6354;51.026;8.968;2023-03-22T12:27:58;15.00;99.90
12578;DHT22;6354;51.026;8.968;2023-03-22T12:30:29;15.10;99.90
12578;DHT22;6354;51.026;8.968;2023-03-22T12:33:02;15.00;99.90
12578;DHT22;6354;51.026;8.968;2023-03-22T12:35:35;15.00;99.90
12578;DHT22;6354;51.026;8.968;2023-03-22T12:38:14;15.00;99.90
12578;DHT22;6354;51.026;8.968;2023-03-22T12:40:47;15.20;99.90
12578;DHT22;6354;51.026;8.968;2023-03-22T12:43:20;15.20;99.90
12578;DHT22;6354;51.026;8.968;2023-03-22T12:45:55;15.40;99.90
12578;DHT22;6354;51.026;8.968;2023-03-22T12:48:31;15.50;99.90
12578;DHT22;6354;51.026;8.968;2023-03-22T12:51:04;15.60;99.90
12578;DHT22;6354;51.026;8.968;2023-03-22T12:53:36;15.50;99.90
12578;DHT22;6354;51.026;8.968;2023-03-22T12:56:10;15.50;99.90
12578;DHT22;6354;51.026;8.968;2023-03-22T12:58:40;15.60;99.90
12578;DHT22;6354;51.026;8.968;2023-03-22T13:01:20;15.60;99.90
12578;DHT22;6354;51.026;8.968;2023-03-22T13:03:51;15.50;99.90
12578;DHT22;6354;51.026;8.968;2023-03-22T13:06:32;15.60;99.90
12578;DHT22;6354;51.026;8.968;2023-03-22T13:09:11;15.70;99.90
12578;DHT22;6354;51.026;8.968;2023-03-22T13:11:43;15.80;99.90
12578;DHT22;6354;51.026;8.968;2023-03-22T13:17:40;15.90;99.90
12578;DHT22;6354;51.026;8.968;2023-03-22T13:20:27;16.00;99.90
12578;DHT22;6354;51.026;8.968;2023-03-22T13:23:02;15.90;99.90
12578;DHT22;6354;51.026;8.968;2023-03-22T13:25:33;16.10;99.90
12578;DHT22;6354;51.026;8.968;2023-03-22T13:28:11;16.20;99.90
12578;DHT22;6354;51.026;8.968;2023-03-22T13:30:48;16.10;99.90
12578;DHT22;6354;51.026;8.968;2023-03-22T13:33:21;16.20;99.90
12578;DHT22;6354;51.026;8.968;2023-03-22T13:35:53;16.10;99.90
12578;DHT22;6354;51.026;8.968;2023-03-22T13:38:24;16.10;99.90
12578;DHT22;6354;51.026;8.968;2023-03-22T13:40:58;16.10;99.90
12578;DHT22;6354;51.026;8.968;2023-03-22T13:43:30;16.10;99.90
12578;DHT22;6354;51.026;8.968;2023-03-22T13:48:54;16.10;99.90
12578;DHT22;6354;51.026;8.968;2023-03-22T13:51:28;16.20;99.90
12578;DHT22;6354;51.026;8.968;2023-03-22T13:54:02;16.10;99.90
12578;DHT22;6354;51.026;8.968;2023-03-22T13:56:45;16.20;99.90
12578;DHT22;6354;51.026;8.968;2023-03-22T13:59:19;16.20;99.90
12578;DHT22;6354;51.026;8.968;2023-03-22T14:01:51;16.20;99.90
12578;DHT22;6354;51.026;8.968;2023-03-22T14:04:23;16.10;99.90
12578;DHT22;6354;51.026;8.968;2023-03-22T14:06:56;16.20;99.90
12578;DHT22;6354;51.026;8.968;2023-03-22T14:09:30;16.20;99.90
12578;DHT22;6354;51.026;8.968;2023-03-22T14:12:06;16.20;99.90
12578;DHT22;6354;51.026;8.968;2023-03-22T14:14:41;16.10;99.90
12578;DHT22;6354;51.026;8.968;2023-03-22T14:17:17;16.10;99.90
12578;DHT22;6354;51.026;8.968;2023-03-22T14:19:49;16.10;99.90
12578;DHT22;6354;51.026;8.968;2023-03-22T14:22:25;16.00;99.90
12578;DHT22;6354;51.026;8.968;2023-03-22T14:24:54;16.00;99.90
12578;DHT22;6354;51.026;8.968;2023-03-22T14:27:24;15.90;99.90
12578;DHT22;6354;51.026;8.968;2023-03-22T14:29:52;15.80;99.90
12578;DHT22;6354;51.026;8.968;2023-03-22T14:32:21;15.80;99.90
12578;DHT22;6354;51.026;8.968;2023-03-22T14:34:57;15.80;99.90
12578;DHT22;6354;51.026;8.968;2023-03-22T14:37:26;15.70;99.90
12578;DHT22;6354;51.026;8.968;2023-03-22T14:39:53;15.50;99.90
12578;DHT22;6354;51.026;8.968;2023-03-22T14:42:27;15.60;99.90
12578;DHT22;6354;51.026;8.968;2023-03-22T14:44:58;15.50;99.90
12578;DHT22;6354;51.026;8.968;2023-03-22T14:47:27;15.60;99.90
12578;DHT22;6354;51.026;8.968;2023-03-22T14:50:02;15.60;99.90
12578;DHT22;6354;51.026;8.968;2023-03-22T14:52:32;15.70;99.90
12578;DHT22;6354;51.026;8.968;2023-03-22T14:55:02;15.70;99.90
12578;DHT22;6354;51.026;8.968;2023-03-22T14:57:32;15.60;99.90
12578;DHT22;6354;51.026;8.968;2023-03-22T15:00:02;15.60;99.90
12578;DHT22;6354;51.026;8.968;2023-03-22T15:02:42;15.50;99.90
12578;DHT22;6354;51.026;8.968;2023-03-22T15:05:13;15.40;99.90
12578;DHT22;6354;51.026;8.968;2023-03-22T15:07:46;15.30;99.90
12578;DHT22;6354;51.026;8.968;2023-03-22T15:10:15;15.30;99.90
12578;DHT22;6354;51.026;8.968;2023-03-22T15:12:46;15.10;99.90
12578;DHT22;6354;51.026;8.968;2023-03-22T15:15:15;15.20;99.90
12578;DHT22;6354;51.026;8.968;2023-03-22T15:17:43;15.10;99.90
12578;DHT22;6354;51.026;8.968;2023-03-22T15:20:13;15.00;99.90
12578;DHT22;6354;51.026;8.968;2023-03-22T15:22:49;15.00;99.90
12578;DHT22;6354;51.026;8.968;2023-03-22T15:25:16;15.00;99.90
12578;DHT22;6354;51.026;8.968;2023-03-22T15:27:44;15.00;99.90
12578;DHT22;6354;51.026;8.968;2023-03-22T15:30:17;15.00;99.90
12578;DHT22;6354;51.026;8.968;2023-03-22T15:32:45;15.00;99.90
12578;DHT22;6354;51.026;8.968;2023-03-22T15:35:13;15.00;99.90
12578;DHT22;6354;51.026;8.968;2023-03-22T15:37:41;15.00;99.90
12578;DHT22;6354;51.026;8.968;2023-03-22T15:40:37;15.10;99.90
12578;DHT22;6354;51.026;8.968;2023-03-22T15:43:12;15.10;99.90
12578;DHT22;6354;51.026;8.968;2023-03-22T15:45:42;15.00;99.90
12578;DHT22;6354;51.026;8.968;2023-03-22T15:48:16;15.00;99.90
12578;DHT22;6354;51.026;8.968;2023-03-22T15:50:48;15.00;99.90
12578;DHT22;6354;51.026;8.968;2023-03-22T15:53:26;14.80;99.90
12578;DHT22;6354;51.026;8.968;2023-03-22T15:55:54;14.80;99.90
12578;DHT22;6354;51.026;8.968;2023-03-22T15:58:28;14.80;99.90
12578;DHT22;6354;51.026;8.968;2023-03-22T16:01:07;14.70;99.90
12578;DHT22;6354;51.026;8.968;2023-03-22T16:03:39;14.70;99.90
12578;DHT22;6354;51.026;8.968;2023-03-22T16:06:09;14.60;99.90
12578;DHT22;6354;51.026;8.968;2023-03-22T16:08:36;14.60;99.90
12578;DHT22;6354;51.026;8.968;2023-03-22T16:11:04;14.60;99.90
12578;DHT22;6354;51.026;8.968;2023-03-22T16:13:32;14.60;99.90
12578;DHT22;6354;51.026;8.968;2023-03-22T16:16:00;14.50;99.90
12578;DHT22;6354;51.026;8.968;2023-03-22T16:18:28;14.50;99.90
12578;DHT22;6354;51.026;8.968;2023-03-22T16:20:55;14.40;99.90
12578;DHT22;6354;51.026;8.968;2023-03-22T16:23:23;14.30;99.90
12578;DHT22;6354;51.026;8.968;2023-03-22T16:25:50;14.20;99.90
12578;DHT22;6354;51.026;8.968;2023-03-22T16:28:17;14.20;99.90
12578;DHT22;6354;51.026;8.968;2023-03-22T16:30:45;14.20;99.90